Back to top

Worland, WY weather

Worland Municipal Airport, Worland, WY: 6/04/2020 04:53
Visibility10 statute milesclear sky
View 7-Day Forecast
Area Summary
Sky/CloudsSky Clear
Weather [last 24 hours]None [rain began 18:53; rain ended 19:08 ]
Pressure29.87 in.Hg (1012 hPa)
Dew Point43 °F (6.1 °C)
Relative Humidity71.3 %
Last 24-Hour Precip.0.01 in. (0.254 mm)
Reading TimePrecipitation
6-hr ending 6/3@23:530.01 in. (0.254 mm)
24-hr ending 6/3@05:530.06 in. (1.524 mm)
Temperature52 °F (11.1 °C)red thermometer
Reading TimeMinimum to Maximum Temperature
6-hr ending 6/3@23:5357.9 °F to 84 °F (14.4 °C to 28.9 °C)
6-hr ending 6/3@17:5377 °F to 89.1 °F (25 °C to 31.7 °C)
6-hr ending 6/3@11:5348 °F to 80.1 °F (8.9 °C to 26.7 °C)
6-hr ending 6/3@05:5348 °F to 60.1 °F (8.9 °C to 15.6 °C)
24-hr ending 6/4@00:5348 °F to 89.1 °F (8.9 °C to 31.7 °C)
Wind0 MPH (0 KT) green arrow pointing at 0 degrees
Wind FromNorth (000 Degrees)
Rolling 24-hr Peak Wind77.1 MPH (67 KT) on 6/3@18:54
Rolling 24-hr Peak Wind FromWest/Northwest (290 Degrees)
Twilight Begins04:53Sunshine Yesterday
Sunrise05:28N/A
Sunset20:53
Twilight Ends21:29
METARKWRL 041053Z AUTO 00000KT 10SM CLR 11/06 A2987 RMK AO2 SLP074 T01110061
Tags: